Time;durP1;ratioP1;P1;durP2;ratioP2;P2;SDS_P1;SDS_P2;PMS_P1;PMS_P2;Temp;Humidity;BMP_temperature;BMP_pressure;BME280_temperature;BME280_humidity;BME280_pressure;Samples;Min_cycle;Max_cycle;Signal;HPM_P1;HPM_P2
2023/12/03 00:02:24;;;;;;;13.25;7.15;;;-0.10;99.90;;;;;;4978446;28;20041;-69
2023/12/03 00:04:52;;;;;;;14.05;6.03;;;-0.20;99.90;;;;;;5011594;28;20064;-70
2023/12/03 00:07:18;;;;;;;15.23;6.15;;;-0.30;99.90;;;;;;5007431;28;20033;-70
2023/12/03 00:09:46;;;;;;;15.55;6.45;;;-0.30;99.90;;;;;;5011963;28;20128;-69
2023/12/03 00:12:12;;;;;;;15.40;6.80;;;-0.30;99.90;;;;;;5008392;28;20139;-69
2023/12/03 00:14:38;;;;;;;18.33;6.65;;;-0.40;99.90;;;;;;5014482;28;20129;-70
2023/12/03 00:17:04;;;;;;;15.35;6.00;;;-0.40;99.90;;;;;;5003641;28;20243;-70
2023/12/03 00:19:30;;;;;;;12.10;6.50;;;-0.40;99.90;;;;;;5026262;28;20502;-70
2023/12/03 00:21:55;;;;;;;14.32;6.45;;;-0.40;99.90;;;;;;5008621;28;20062;-69
2023/12/03 00:24:21;;;;;;;11.65;5.95;;;-0.40;99.90;;;;;;5005082;28;20049;-70
2023/12/03 00:26:48;;;;;;;14.00;5.97;;;-0.50;99.90;;;;;;5014987;28;20045;-70
2023/12/03 00:29:14;;;;;;;9.90;4.95;;;-0.50;99.90;;;;;;5008348;28;20088;-69
2023/12/03 00:31:41;;;;;;;13.18;6.13;;;-0.40;99.90;;;;;;4993070;28;20049;-70
2023/12/03 00:34:06;;;;;;;11.80;5.88;;;-0.50;99.90;;;;;;5022522;28;20102;-69
2023/12/03 00:36:32;;;;;;;11.25;5.10;;;-0.40;99.90;;;;;;5010350;28;20269;-69
2023/12/03 00:38:58;;;;;;;11.52;5.22;;;-0.40;99.90;;;;;;5000221;28;20053;-69
2023/12/03 00:41:25;;;;;;;11.93;4.88;;;-0.40;99.90;;;;;;5018336;28;20053;-70
2023/12/03 00:43:51;;;;;;;11.38;5.32;;;-0.40;99.90;;;;;;5018908;28;20122;-69
2023/12/03 00:46:19;;;;;;;8.27;4.40;;;-0.40;99.90;;;;;;5018188;28;20480;-70
2023/12/03 00:48:45;;;;;;;5.95;4.22;;;-0.40;99.90;;;;;;5008015;28;20098;-70
2023/12/03 00:51:11;;;;;;;11.88;4.03;;;-0.40;99.90;;;;;;5008257;28;20107;-70
2023/12/03 00:53:37;;;;;;;7.30;4.57;;;-0.50;99.90;;;;;;5028185;28;20495;-70
2023/12/03 00:56:03;;;;;;;8.32;4.13;;;-0.40;99.90;;;;;;5018836;28;20045;-70
2023/12/03 00:58:29;;;;;;;9.35;4.75;;;-0.40;99.90;;;;;;5006692;28;20088;-70
2023/12/03 01:00:54;;;;;;;7.75;4.30;;;-0.40;99.90;;;;;;5016795;28;20559;-70
2023/12/03 01:03:20;;;;;;;6.40;3.90;;;-0.30;99.90;;;;;;5020926;28;20052;-70
2023/12/03 01:05:46;;;;;;;10.32;4.78;;;-0.30;99.90;;;;;;4997506;28;20046;-70
2023/12/03 01:08:12;;;;;;;14.07;4.85;;;-0.20;99.90;;;;;;5021956;28;20462;-69
2023/12/03 01:10:37;;;;;;;10.52;4.10;;;-0.20;99.90;;;;;;5018949;28;20052;-70
2023/12/03 01:13:03;;;;;;;9.15;4.38;;;-0.20;99.90;;;;;;4999033;28;20053;-70
2023/12/03 01:15:29;;;;;;;8.45;3.72;;;-0.20;99.90;;;;;;4999346;28;20041;-70
2023/12/03 01:17:55;;;;;;;9.48;4.88;;;-0.20;99.90;;;;;;5007495;28;20053;-70
2023/12/03 01:20:20;;;;;;;10.95;4.80;;;-0.20;99.90;;;;;;5008807;28;20057;-69
2023/12/03 01:22:46;;;;;;;12.20;4.63;;;-0.20;99.90;;;;;;5011527;28;20377;-70
2023/12/03 01:25:12;;;;;;;11.65;4.82;;;-0.20;99.90;;;;;;5009674;28;20555;-69
2023/12/03 01:27:37;;;;;;;8.38;4.80;;;-0.20;99.90;;;;;;4998711;28;20050;-70
2023/12/03 01:30:04;;;;;;;9.88;4.43;;;-0.30;99.90;;;;;;4991314;28;20060;-69
2023/12/03 01:32:29;;;;;;;10.63;4.63;;;-0.20;99.90;;;;;;4980690;28;20073;-69
2023/12/03 01:34:55;;;;;;;11.38;5.15;;;-0.30;99.90;;;;;;5020036;28;20096;-70
2023/12/03 01:37:21;;;;;;;10.13;5.88;;;-0.30;99.90;;;;;;5005862;28;20054;-70
2023/12/03 01:39:47;;;;;;;11.88;5.70;;;-0.20;99.90;;;;;;5023621;28;20395;-69
2023/12/03 01:42:13;;;;;;;13.07;5.57;;;-0.40;99.90;;;;;;5014818;28;20057;-69
2023/12/03 01:44:38;;;;;;;10.75;5.32;;;-0.40;99.90;;;;;;4994415;28;20045;-69
2023/12/03 01:47:05;;;;;;;12.13;5.45;;;-0.40;99.90;;;;;;5004517;28;20052;-70
2023/12/03 01:49:32;;;;;;;9.50;4.90;;;-0.40;99.90;;;;;;5018906;28;20511;-69
2023/12/03 01:51:58;;;;;;;9.13;5.05;;;-0.40;99.90;;;;;;5004705;28;20080;-69
2023/12/03 01:54:35;;;;;;;11.98;5.28;;;-0.50;99.90;;;;;;5021132;28;20195;-69
2023/12/03 01:57:01;;;;;;;10.48;5.60;;;-0.50;99.90;;;;;;5010566;28;20096;-69
2023/12/03 01:59:27;;;;;;;11.63;5.78;;;-0.50;99.90;;;;;;5007148;28;20105;-69
2023/12/03 02:01:53;;;;;;;9.82;5.13;;;-0.50;99.90;;;;;;5009929;28;20049;-69
2023/12/03 02:04:19;;;;;;;10.05;5.10;;;-0.50;99.90;;;;;;5009310;28;20041;-69
2023/12/03 02:06:44;;;;;;;8.00;4.50;;;-0.60;99.90;;;;;;5012081;28;20054;-69
2023/12/03 02:09:10;;;;;;;9.02;4.32;;;-0.60;99.90;;;;;;5014224;28;20060;-69
2023/12/03 02:11:36;;;;;;;10.45;4.30;;;-0.60;99.90;;;;;;5007809;28;20598;-69
2023/12/03 02:14:03;;;;;;;8.23;4.32;;;-0.60;99.90;;;;;;5021601;28;20040;-69
2023/12/03 02:16:34;;;;;;;8.52;4.07;;;-0.80;99.90;;;;;;5007638;28;20056;-69
2023/12/03 02:19:01;;;;;;;7.95;3.92;;;-0.80;99.90;;;;;;4996464;28;20057;-69
2023/12/03 02:21:26;;;;;;;10.15;4.10;;;-0.80;99.90;;;;;;5020651;28;20048;-69
2023/12/03 02:23:52;;;;;;;11.75;4.70;;;-0.80;99.90;;;;;;4992070;28;20058;-69
2023/12/03 02:26:18;;;;;;;9.80;4.55;;;-0.90;99.90;;;;;;5022516;28;20055;-69
2023/12/03 02:28:44;;;;;;;6.40;3.92;;;-0.90;99.90;;;;;;5020694;28;20042;-69
2023/12/03 02:31:09;;;;;;;8.13;3.85;;;-1.00;99.90;;;;;;5009504;28;20495;-69
2023/12/03 02:33:35;;;;;;;9.73;4.38;;;-1.20;99.90;;;;;;4991166;28;20049;-69
2023/12/03 02:36:01;;;;;;;8.32;3.45;;;-1.40;99.90;;;;;;5008974;28;20076;-69
2023/12/03 02:38:27;;;;;;;11.35;4.15;;;-1.50;99.90;;;;;;4996798;28;20415;-69
2023/12/03 02:40:56;;;;;;;7.05;4.05;;;-1.60;99.90;;;;;;4993375;28;20140;-69
2023/12/03 02:43:22;;;;;;;8.35;4.07;;;-1.50;99.90;;;;;;4998209;28;20045;-69
2023/12/03 02:45:47;;;;;;;6.35;4.10;;;-1.50;99.90;;;;;;5008857;28;20041;-69
2023/12/03 02:48:13;;;;;;;7.03;4.07;;;-1.50;99.90;;;;;;5005138;28;20077;-69
2023/12/03 02:50:39;;;;;;;9.45;4.90;;;-1.40;99.90;;;;;;4983038;28;20403;-69
2023/12/03 02:53:05;;;;;;;7.57;4.25;;;-1.30;99.90;;;;;;5016581;28;20107;-69
2023/12/03 02:55:30;;;;;;;11.05;4.32;;;-1.20;99.90;;;;;;5021754;28;20037;-69
2023/12/03 02:57:56;;;;;;;8.20;4.90;;;-1.20;99.90;;;;;;5005609;28;20045;-69
2023/12/03 03:00:22;;;;;;;10.55;4.75;;;-1.10;99.90;;;;;;5009051;28;20044;-69
2023/12/03 03:02:47;;;;;;;10.35;4.40;;;-1.00;99.90;;;;;;5012001;28;20041;-69
2023/12/03 03:05:13;;;;;;;7.90;4.30;;;-1.00;99.90;;;;;;4996934;28;20076;-69
2023/12/03 03:07:39;;;;;;;7.90;4.03;;;-1.00;99.90;;;;;;4998471;28;20049;-70
2023/12/03 03:10:05;;;;;;;10.43;4.22;;;-1.00;99.90;;;;;;4995160;28;20045;-69
2023/12/03 03:12:31;;;;;;;8.50;4.18;;;-0.90;99.90;;;;;;4992370;28;20523;-69
2023/12/03 03:14:57;;;;;;;7.00;4.47;;;-0.90;99.90;;;;;;5001554;28;20050;-69
2023/12/03 03:17:22;;;;;;;8.75;4.13;;;-0.80;99.90;;;;;;5000926;28;20157;-69
2023/12/03 03:19:48;;;;;;;7.60;4.63;;;-0.70;99.90;;;;;;5006465;28;20399;-70
2023/12/03 03:22:14;;;;;;;9.60;4.13;;;-0.70;99.90;;;;;;5008076;28;20515;-69
2023/12/03 03:24:41;;;;;;;7.18;4.50;;;-0.60;99.90;;;;;;5009636;28;20082;-70
2023/12/03 03:27:07;;;;;;;9.20;4.63;;;-0.60;99.90;;;;;;5022648;28;20052;-70
2023/12/03 03:29:34;;;;;;;8.75;4.72;;;-0.60;99.90;;;;;;5020715;28;20033;-70
2023/12/03 03:32:00;;;;;;;11.80;4.55;;;-0.60;99.90;;;;;;5016945;28;20136;-70
2023/12/03 03:34:26;;;;;;;10.27;4.28;;;-0.60;99.90;;;;;;4987979;28;20468;-70
2023/12/03 03:36:52;;;;;;;8.43;4.57;;;-0.50;99.90;;;;;;4981993;28;20041;-70
2023/12/03 03:39:17;;;;;;;9.82;4.85;;;-0.40;99.90;;;;;;5004621;28;20403;-69
2023/12/03 03:41:43;;;;;;;10.20;4.97;;;-0.40;99.90;;;;;;4990713;28;20054;-70
2023/12/03 03:44:09;;;;;;;10.00;5.10;;;-0.40;99.90;;;;;;4984995;28;20050;-69
2023/12/03 03:46:34;;;;;;;13.13;6.03;;;-0.40;99.90;;;;;;5011255;28;20061;-70
2023/12/03 03:49:00;;;;;;;14.18;5.07;;;-0.30;99.90;;;;;;5004973;28;20081;-70
2023/12/03 03:51:26;;;;;;;11.75;5.00;;;-0.20;99.90;;;;;;5011121;28;20052;-70
2023/12/03 03:53:52;;;;;;;8.90;4.93;;;-0.20;99.90;;;;;;5009883;28;20391;-70
2023/12/03 03:56:17;;;;;;;12.85;5.40;;;-0.20;99.90;;;;;;5010474;28;20133;-70
2023/12/03 03:58:43;;;;;;;11.65;5.47;;;-0.10;99.90;;;;;;4984519;28;20072;-70
2023/12/03 04:01:09;;;;;;;14.98;5.95;;;-0.20;99.90;;;;;;5003297;28;20053;-69
2023/12/03 04:03:35;;;;;;;10.07;5.40;;;0.00;99.90;;;;;;5009915;28;20088;-70
2023/12/03 04:06:03;;;;;;;10.82;5.28;;;0.00;99.90;;;;;;5012773;28;20500;-70
2023/12/03 04:08:29;;;;;;;13.35;6.35;;;0.00;99.90;;;;;;5026197;28;20041;-70
2023/12/03 04:10:55;;;;;;;17.13;6.43;;;-0.10;99.90;;;;;;4989500;28;20514;-70
2023/12/03 04:13:21;;;;;;;17.50;5.70;;;-0.10;99.90;;;;;;5014666;28;20088;-70
2023/12/03 04:15:46;;;;;;;10.23;5.53;;;-0.10;99.90;;;;;;5012946;28;20049;-70
2023/12/03 04:18:12;;;;;;;11.90;5.63;;;-0.10;99.90;;;;;;5001201;28;20046;-70
2023/12/03 04:20:38;;;;;;;13.48;5.35;;;-0.10;99.90;;;;;;4994870;28;20049;-70
2023/12/03 04:23:04;;;;;;;12.05;5.35;;;-0.10;99.90;;;;;;5010774;28;20555;-69
2023/12/03 04:25:30;;;;;;;15.25;5.38;;;-0.20;99.90;;;;;;5038713;28;20048;-70
2023/12/03 04:27:56;;;;;;;9.15;5.18;;;-0.20;99.90;;;;;;4999270;28;20095;-70
2023/12/03 04:30:22;;;;;;;12.27;5.43;;;-0.20;99.90;;;;;;5000665;28;20045;-70
2023/12/03 04:32:48;;;;;;;8.75;5.57;;;-0.10;99.90;;;;;;5008568;28;20503;-70
2023/12/03 04:35:14;;;;;;;7.43;4.55;;;-0.10;99.90;;;;;;5016720;28;20084;-70
2023/12/03 04:37:40;;;;;;;8.95;5.05;;;-0.10;99.90;;;;;;5010470;28;20045;-70
2023/12/03 04:40:06;;;;;;;6.63;4.55;;;0.00;99.90;;;;;;5014943;28;20044;-69
2023/12/03 04:42:32;;;;;;;14.38;5.20;;;0.10;99.90;;;;;;5012545;28;20050;-70
2023/12/03 04:44:58;;;;;;;11.48;4.63;;;0.00;99.90;;;;;;5014451;28;20056;-70
2023/12/03 04:47:23;;;;;;;10.50;5.03;;;0.00;99.90;;;;;;5020357;28;20056;-70
2023/12/03 04:49:49;;;;;;;7.28;4.65;;;0.00;99.90;;;;;;5011952;28;20055;-70
2023/12/03 04:52:15;;;;;;;11.68;5.03;;;0.10;99.90;;;;;;5016549;28;20061;-70
2023/12/03 04:54:40;;;;;;;7.60;4.47;;;0.20;99.90;;;;;;5023834;28;20045;-70
2023/12/03 04:57:06;;;;;;;10.48;5.00;;;0.10;99.90;;;;;;5030599;28;20434;-70
2023/12/03 04:59:32;;;;;;;16.45;5.82;;;0.10;99.90;;;;;;5009929;28;20046;-70
2023/12/03 05:01:57;;;;;;;9.18;5.18;;;0.20;99.90;;;;;;4987332;28;20081;-69
2023/12/03 05:04:25;;;;;;;12.43;6.82;;;0.10;99.90;;;;;;5013307;28;20068;-70
2023/12/03 05:06:51;;;;;;;11.80;5.55;;;0.20;99.90;;;;;;5017450;28;20132;-70
2023/12/03 05:09:17;;;;;;;9.52;5.63;;;0.10;99.90;;;;;;4993392;28;20148;-70
2023/12/03 05:11:44;;;;;;;27.45;6.57;;;0.10;99.90;;;;;;5010917;28;20476;-70
2023/12/03 05:14:10;;;;;;;20.13;6.05;;;0.00;99.90;;;;;;5007117;28;20053;-70
2023/12/03 05:16:36;;;;;;;28.70;5.30;;;0.10;99.90;;;;;;5010372;28;20369;-69
2023/12/03 05:19:02;;;;;;;32.45;4.90;;;0.00;99.90;;;;;;5010616;28;20038;-69
2023/12/03 05:21:28;;;;;;;22.60;4.78;;;0.00;99.90;;;;;;5011952;28;20111;-70
2023/12/03 05:23:54;;;;;;;40.03;5.88;;;0.10;99.90;;;;;;5005854;28;20052;-70
2023/12/03 05:26:19;;;;;;;34.83;4.88;;;0.10;99.90;;;;;;5016077;28;20048;-70
2023/12/03 05:28:45;;;;;;;22.38;4.80;;;0.10;99.90;;;;;;5015698;28;20479;-70
2023/12/03 05:31:11;;;;;;;39.97;5.30;;;0.00;99.90;;;;;;5016108;28;20067;-70
2023/12/03 05:33:37;;;;;;;51.15;5.30;;;0.00;99.90;;;;;;4994434;28;20524;-70
2023/12/03 05:36:02;;;;;;;33.78;5.53;;;0.00;99.90;;;;;;5017687;28;20679;-70
2023/12/03 05:38:28;;;;;;;44.80;5.82;;;0.10;99.90;;;;;;5008881;28;20127;-70
2023/12/03 05:40:54;;;;;;;35.95;5.60;;;0.10;99.90;;;;;;5010079;28;20041;-69
2023/12/03 05:43:20;;;;;;;26.77;5.68;;;0.00;99.90;;;;;;4992164;28;20666;-69
2023/12/03 05:45:46;;;;;;;27.48;4.85;;;0.00;99.90;;;;;;5009797;28;20401;-69
2023/12/03 05:48:11;;;;;;;34.03;4.88;;;0.10;99.90;;;;;;5023918;28;20106;-69
2023/12/03 05:50:37;;;;;;;12.82;3.83;;;0.10;99.90;;;;;;5021342;28;20057;-70
2023/12/03 05:53:03;;;;;;;46.00;4.95;;;0.00;99.90;;;;;;4998445;28;20565;-70
2023/12/03 05:55:28;;;;;;;21.33;4.63;;;-0.10;99.90;;;;;;5008932;28;20057;-70
2023/12/03 05:57:54;;;;;;;26.73;6.57;;;0.00;99.90;;;;;;4990301;28;20506;-69
2023/12/03 06:00:20;;;;;;;57.80;10.50;;;-0.10;99.90;;;;;;5006702;28;20045;-70
2023/12/03 06:02:45;;;;;;;49.53;11.18;;;-0.20;99.90;;;;;;5009069;28;20046;-70
2023/12/03 06:05:11;;;;;;;54.95;12.60;;;-0.10;99.90;;;;;;5023666;28;20084;-70
2023/12/03 06:07:37;;;;;;;55.00;13.32;;;-0.20;99.90;;;;;;5018408;28;20040;-70
2023/12/03 06:10:03;;;;;;;61.25;13.45;;;-0.20;99.90;;;;;;5020145;28;20089;-69
2023/12/03 06:12:29;;;;;;;64.07;14.15;;;-0.20;99.90;;;;;;5012206;28;20057;-70
2023/12/03 06:14:55;;;;;;;86.75;14.65;;;-0.20;99.90;;;;;;5008749;28;20095;-70
2023/12/03 06:17:21;;;;;;;34.17;13.32;;;-0.20;99.90;;;;;;5009018;28;20053;-70
2023/12/03 06:19:47;;;;;;;62.65;14.38;;;-0.20;99.90;;;;;;5010045;28;20048;-69
2023/12/03 06:22:12;;;;;;;59.58;12.57;;;-0.20;99.90;;;;;;4991923;28;20052;-70
2023/12/03 06:24:38;;;;;;;79.88;15.32;;;-0.10;99.90;;;;;;4991664;28;20159;-70
2023/12/03 06:27:05;;;;;;;68.88;14.88;;;-0.10;99.90;;;;;;5011216;28;20068;-69
2023/12/03 06:29:30;;;;;;;78.65;14.43;;;-0.10;99.90;;;;;;5024878;28;20415;-70
2023/12/03 06:31:56;;;;;;;66.20;15.05;;;-0.10;99.90;;;;;;4991888;28;20045;-70
2023/12/03 06:34:22;;;;;;;72.18;14.00;;;-0.10;99.90;;;;;;4999059;28;20052;-70
2023/12/03 06:36:47;;;;;;;68.82;14.25;;;0.00;99.90;;;;;;5008099;28;20484;-69
2023/12/03 06:39:13;;;;;;;65.25;11.35;;;0.00;99.90;;;;;;5019590;28;20059;-70
2023/12/03 06:41:39;;;;;;;71.60;9.82;;;0.00;99.90;;;;;;5020377;28;20480;-70
2023/12/03 06:44:05;;;;;;;43.63;10.32;;;0.10;99.90;;;;;;4992063;28;20061;-70
2023/12/03 06:46:37;;;;;;;32.53;9.85;;;0.10;99.90;;;;;;5008609;28;20443;-69
2023/12/03 06:49:03;;;;;;;46.28;10.02;;;0.20;99.90;;;;;;5016295;28;20048;-70
2023/12/03 06:51:28;;;;;;;36.85;10.02;;;0.10;99.90;;;;;;5006281;28;20119;-70
2023/12/03 06:53:54;;;;;;;30.33;9.82;;;0.00;99.90;;;;;;5035640;28;20045;-69
2023/12/03 06:56:20;;;;;;;49.28;7.68;;;0.10;99.90;;;;;;5016795;28;20045;-70
2023/12/03 06:58:45;;;;;;;27.05;6.72;;;0.10;99.90;;;;;;5006430;28;20041;-69
2023/12/03 07:01:12;;;;;;;35.75;8.13;;;0.10;99.90;;;;;;4978527;28;20057;-70
2023/12/03 07:03:38;;;;;;;45.28;8.63;;;0.10;99.90;;;;;;5038509;28;20053;-69
2023/12/03 07:06:04;;;;;;;27.10;7.13;;;0.10;99.90;;;;;;5011860;28;20389;-70
2023/12/03 07:08:30;;;;;;;58.42;8.80;;;0.20;99.90;;;;;;5018767;28;20041;-70
2023/12/03 07:10:56;;;;;;;30.85;7.72;;;0.20;99.90;;;;;;5007528;28;20738;-70
2023/12/03 07:13:22;;;;;;;40.15;7.32;;;0.20;99.90;;;;;;5002877;28;20073;-70
2023/12/03 07:15:48;;;;;;;46.15;7.82;;;0.20;99.90;;;;;;5019306;28;20081;-69
2023/12/03 07:18:14;;;;;;;36.53;7.38;;;0.20;99.90;;;;;;5012851;28;20052;-70
2023/12/03 07:20:40;;;;;;;36.85;7.55;;;0.30;99.90;;;;;;5015175;28;20060;-70
2023/12/03 07:23:06;;;;;;;29.38;6.93;;;0.30;99.90;;;;;;4995403;28;20061;-70
2023/12/03 07:25:32;;;;;;;32.55;7.22;;;0.20;99.90;;;;;;5013298;28;20037;-70
2023/12/03 07:27:57;;;;;;;41.25;7.90;;;0.30;99.90;;;;;;5010522;28;20131;-70
2023/12/03 07:30:24;;;;;;;28.17;6.93;;;0.30;99.90;;;;;;4993456;28;20472;-70
2023/12/03 07:32:51;;;;;;;23.23;6.60;;;0.30;99.90;;;;;;5008246;28;20396;-70
2023/12/03 07:35:17;;;;;;;28.58;7.30;;;0.40;99.90;;;;;;4996147;28;20415;-70
2023/12/03 07:37:42;;;;;;;35.80;6.97;;;0.30;99.90;;;;;;5011038;28;20094;-70
2023/12/03 07:40:09;;;;;;;36.63;7.53;;;0.40;99.90;;;;;;5007878;28;20049;-69
2023/12/03 07:42:35;;;;;;;38.85;6.75;;;0.40;99.90;;;;;;5012372;28;20132;-69
2023/12/03 07:45:01;;;;;;;18.33;6.45;;;0.40;99.90;;;;;;5010854;28;20136;-70
2023/12/03 07:47:26;;;;;;;14.95;6.88;;;0.40;99.90;;;;;;5009139;28;20096;-70
2023/12/03 07:49:52;;;;;;;16.60;5.72;;;0.40;99.90;;;;;;5008232;28;20048;-70
2023/12/03 07:52:19;;;;;;;28.48;6.85;;;0.50;99.90;;;;;;5011811;28;20049;-70
2023/12/03 07:54:45;;;;;;;25.02;6.10;;;0.60;99.90;;;;;;5011851;28;20053;-70
2023/12/03 07:57:11;;;;;;;35.80;7.25;;;0.50;99.90;;;;;;4992001;28;20033;-70
2023/12/03 07:59:37;;;;;;;29.75;7.32;;;0.50;99.90;;;;;;5011306;28;20051;-69
2023/12/03 08:02:03;;;;;;;17.17;8.15;;;0.60;99.90;;;;;;5012042;28;20048;-69
2023/12/03 08:04:29;;;;;;;24.90;7.78;;;0.60;99.90;;;;;;4976920;28;20394;-70
2023/12/03 08:06:55;;;;;;;32.80;9.20;;;0.60;99.90;;;;;;4993005;28;20057;-69
2023/12/03 08:09:20;;;;;;;18.08;8.85;;;0.60;99.90;;;;;;5012208;28;20041;-70
2023/12/03 08:11:46;;;;;;;25.38;8.60;;;0.60;99.90;;;;;;5008167;28;20091;-70
2023/12/03 08:14:12;;;;;;;24.23;8.73;;;0.60;99.90;;;;;;4995747;28;20052;-70
2023/12/03 08:16:38;;;;;;;34.10;10.70;;;0.70;99.90;;;;;;5012191;28;20378;-69
2023/12/03 08:19:03;;;;;;;34.30;9.63;;;0.70;99.90;;;;;;5009787;28;20457;-70
2023/12/03 08:21:31;;;;;;;24.70;9.15;;;0.70;99.90;;;;;;4987584;28;20056;-70
2023/12/03 08:23:58;;;;;;;38.88;10.00;;;0.70;99.90;;;;;;5015710;28;20076;-70
2023/12/03 08:26:24;;;;;;;29.73;10.02;;;0.70;99.90;;;;;;4994747;28;20132;-70
2023/12/03 08:28:50;;;;;;;29.00;8.98;;;0.80;99.90;;;;;;5004254;28;20132;-70
2023/12/03 08:31:15;;;;;;;38.22;9.27;;;0.70;99.90;;;;;;5009925;28;20404;-70
2023/12/03 08:33:41;;;;;;;24.38;9.23;;;0.70;99.90;;;;;;4994551;28;20405;-70
2023/12/03 08:36:08;;;;;;;20.90;10.30;;;0.80;99.90;;;;;;5010214;28;20147;-70
2023/12/03 08:38:33;;;;;;;25.80;9.27;;;0.80;99.90;;;;;;5008882;28;20046;-70
2023/12/03 08:40:59;;;;;;;31.70;10.23;;;0.80;99.90;;;;;;5004429;28;20050;-70
2023/12/03 08:43:25;;;;;;;21.10;9.45;;;0.80;99.90;;;;;;5010062;28;20427;-70
2023/12/03 08:45:51;;;;;;;30.15;9.75;;;0.80;99.90;;;;;;5006218;28;20053;-70
2023/12/03 08:48:16;;;;;;;29.17;9.45;;;0.80;99.90;;;;;;5007804;28;20530;-70
2023/12/03 08:50:42;;;;;;;27.42;9.63;;;0.80;99.90;;;;;;5010767;28;20038;-70
2023/12/03 08:53:08;;;;;;;34.95;10.32;;;0.90;99.90;;;;;;4995115;28;20049;-70
2023/12/03 08:55:33;;;;;;;35.97;10.13;;;0.80;99.90;;;;;;5010319;28;20527;-70
2023/12/03 08:58:02;;;;;;;42.88;9.45;;;0.80;99.90;;;;;;5008358;28;20077;-70
2023/12/03 09:00:27;;;;;;;28.58;8.73;;;0.90;99.90;;;;;;5012445;28;20052;-70
2023/12/03 09:02:53;;;;;;;46.13;9.18;;;0.90;99.90;;;;;;4971721;28;20440;-70
2023/12/03 09:05:19;;;;;;;79.18;10.35;;;1.00;99.90;;;;;;4990911;28;20140;-71
2023/12/03 09:07:44;;;;;;;61.92;10.10;;;0.90;99.90;;;;;;5006863;28;20092;-70
2023/12/03 09:10:10;;;;;;;38.75;9.40;;;0.90;99.90;;;;;;5004223;28;20049;-71
2023/12/03 09:12:36;;;;;;;51.03;10.68;;;1.00;99.90;;;;;;5020465;28;20045;-70
2023/12/03 09:15:02;;;;;;;32.08;9.38;;;1.10;99.90;;;;;;5012519;28;20129;-70
2023/12/03 09:17:27;;;;;;;29.42;9.30;;;1.00;99.90;;;;;;5011411;28;20068;-71
2023/12/03 09:19:57;;;;;;;29.55;10.07;;;1.00;99.90;;;;;;5003939;28;20053;-71
2023/12/03 09:22:22;;;;;;;32.70;10.48;;;1.00;99.90;;;;;;5021856;28;20057;-71
2023/12/03 09:24:48;;;;;;;22.83;7.32;;;1.10;99.90;;;;;;5006341;28;20056;-71
2023/12/03 09:27:14;;;;;;;22.70;8.63;;;1.10;99.90;;;;;;4999939;28;20286;-70
2023/12/03 09:29:40;;;;;;;21.13;8.00;;;1.20;99.90;;;;;;5029503;28;20100;-70
2023/12/03 09:32:05;;;;;;;25.20;8.55;;;1.20;99.90;;;;;;5008819;28;20450;-70
2023/12/03 09:34:31;;;;;;;35.10;8.70;;;1.20;99.90;;;;;;5018607;28;20037;-70
2023/12/03 09:36:57;;;;;;;34.38;9.70;;;1.30;99.90;;;;;;5001017;28;20049;-71
2023/12/03 09:39:23;;;;;;;23.80;8.27;;;1.30;99.90;;;;;;5027300;28;20062;-71
2023/12/03 09:41:50;;;;;;;18.77;6.80;;;1.30;99.90;;;;;;5011800;28;20056;-71
2023/12/03 09:44:24;;;;;;;20.42;7.85;;;1.30;99.90;;;;;;5028587;28;20067;-71
2023/12/03 09:46:53;;;;;;;16.30;6.40;;;1.40;99.90;;;;;;4990435;28;20128;-71
2023/12/03 09:49:23;;;;;;;12.65;6.03;;;1.40;99.90;;;;;;5027407;28;20056;-71
2023/12/03 09:51:50;;;;;;;25.37;8.47;;;1.30;99.90;;;;;;5027652;28;20048;-71
2023/12/03 09:54:16;;;;;;;22.67;7.93;;;1.40;99.90;;;;;;5008768;28;20068;-71
2023/12/03 09:56:46;;;;;;;28.00;9.07;;;1.40;99.90;;;;;;5015697;28;20060;-71
2023/12/03 09:59:14;;;;;;;26.30;8.73;;;1.40;99.90;;;;;;5023124;28;20484;-71
2023/12/03 10:01:41;;;;;;;24.10;8.63;;;1.40;99.90;;;;;;4997832;28;20136;-71
2023/12/03 10:04:07;;;;;;;31.30;10.00;;;1.40;99.90;;;;;;5018757;28;20049;-71
2023/12/03 10:06:42;;;;;;;19.13;7.30;;;1.50;99.90;;;;;;5008032;28;20133;-71
2023/12/03 10:09:08;;;;;;;18.42;7.88;;;1.50;99.90;;;;;;5000669;28;20455;-71
2023/12/03 10:11:41;;;;;;;19.15;7.63;;;1.50;99.90;;;;;;4994065;28;20042;-71
2023/12/03 10:14:09;;;;;;;14.02;5.78;;;1.50;99.90;;;;;;5022062;28;20450;-71
2023/12/03 10:16:36;;;;;;;21.70;7.57;;;1.50;99.90;;;;;;5037232;28;20128;-71
2023/12/03 10:19:02;;;;;;;18.42;7.13;;;1.60;99.90;;;;;;5014856;28;20049;-71
2023/12/03 10:21:28;;;;;;;20.50;7.05;;;1.60;99.90;;;;;;5020927;28;20523;-71
2023/12/03 10:24:00;;;;;;;20.15;7.60;;;1.60;99.90;;;;;;5034234;28;20088;-70
2023/12/03 10:26:26;;;;;;;15.68;5.57;;;1.60;99.90;;;;;;5021303;28;20049;-71
2023/12/03 10:28:53;;;;;;;23.75;8.57;;;1.70;99.90;;;;;;5014932;28;20052;-71
2023/12/03 10:31:18;;;;;;;23.10;8.30;;;1.70;99.90;;;;;;5000276;28;20048;-71
2023/12/03 10:33:45;;;;;;;21.13;7.75;;;1.70;99.90;;;;;;5004724;28;20049;-71
2023/12/03 10:36:12;;;;;;;18.50;7.85;;;1.70;99.90;;;;;;4986104;28;20602;-71
2023/12/03 10:38:39;;;;;;;17.05;7.18;;;1.70;99.90;;;;;;4985288;28;20045;-71
2023/12/03 10:41:07;;;;;;;28.20;8.73;;;1.80;99.90;;;;;;4999570;28;20037;-71
2023/12/03 10:43:38;;;;;;;20.60;8.07;;;1.80;99.90;;;;;;5007832;28;20045;-71
2023/12/03 10:46:08;;;;;;;;;;;1.80;99.90;;;;;;4993692;28;20045;-72
2023/12/03 10:48:34;;;;;;;23.63;8.73;;;1.90;99.90;;;;;;5006120;28;19921;-71
2023/12/03 10:51:06;;;;;;;4.30;2.40;;;1.90;99.90;;;;;;5008653;28;20053;-71
2023/12/03 10:53:33;;;;;;;25.63;9.23;;;1.90;99.90;;;;;;5003816;28;20438;-71
2023/12/03 10:56:02;;;;;;;8.50;4.38;;;2.00;99.90;;;;;;5009114;28;20073;-71
2023/12/03 10:58:29;;;;;;;22.73;7.85;;;1.90;99.90;;;;;;4989400;28;20120;-71
2023/12/03 11:01:20;;;;;;;24.38;9.45;;;1.90;99.90;;;;;;5020000;28;20045;-71
2023/12/03 11:03:56;;;;;;;18.52;7.65;;;1.90;99.90;;;;;;4990764;28;20435;-71
2023/12/03 11:06:23;;;;;;;24.30;8.70;;;1.90;99.90;;;;;;5008864;28;20045;-71
2023/12/03 11:08:52;;;;;;;20.90;8.02;;;2.00;99.90;;;;;;4997313;28;20540;-71
2023/12/03 11:11:20;;;;;;;26.73;8.55;;;2.00;99.90;;;;;;5005546;28;20045;-71
2023/12/03 11:13:52;;;;;;;17.40;8.00;;;2.00;99.90;;;;;;5008005;28;20053;-71
2023/12/03 11:16:19;;;;;;;29.13;9.55;;;2.00;99.90;;;;;;5029724;28;20079;-71
2023/12/03 11:18:53;;;;;;;17.70;8.15;;;2.00;99.90;;;;;;5012610;28;20119;-71
2023/12/03 11:21:33;;;;;;;21.27;8.18;;;2.10;99.90;;;;;;5016654;28;20479;-71
2023/12/03 11:24:29;;;;;;;19.85;7.75;;;2.00;99.90;;;;;;5020211;28;20038;-71
2023/12/03 11:26:59;;;;;;;26.67;9.93;;;2.20;99.90;;;;;;5025256;28;20060;-71
2023/12/03 11:29:44;;;;;;;;;;;2.20;99.90;;;;;;5013215;28;20401;-70
2023/12/03 11:32:09;;;;;;;24.40;9.25;;;2.20;99.90;;;;;;4996964;28;20298;-71
2023/12/03 11:34:35;;;;;;;29.70;10.60;;;2.20;99.90;;;;;;5017453;28;20061;-70
2023/12/03 11:37:01;;;;;;;21.80;9.45;;;2.20;99.90;;;;;;5018241;28;20053;-70
2023/12/03 11:39:28;;;;;;;27.25;9.77;;;2.10;99.90;;;;;;5005627;28;20042;-71
2023/12/03 11:42:00;;;;;;;15.95;8.40;;;2.10;99.90;;;;;;5029112;28;20049;-70
2023/12/03 11:44:26;;;;;;;35.20;13.45;;;2.10;99.90;;;;;;4999525;28;20060;-71
2023/12/03 11:47:03;;;;;;;24.70;10.07;;;2.10;99.90;;;;;;5017698;28;20525;-71
2023/12/03 11:49:29;;;;;;;18.38;8.68;;;2.10;99.90;;;;;;5011469;28;20519;-70
2023/12/03 11:51:55;;;;;;;30.63;10.77;;;2.10;99.90;;;;;;4993615;28;20417;-70
2023/12/03 11:54:25;;;;;;;20.45;10.00;;;2.10;99.90;;;;;;5007537;28;20052;-70
2023/12/03 11:56:52;;;;;;;27.90;10.68;;;2.20;99.90;;;;;;4998650;28;20050;-71
2023/12/03 11:59:18;;;;;;;21.30;9.10;;;2.20;99.90;;;;;;5008378;28;20091;-70
2023/12/03 12:01:45;;;;;;;26.15;9.32;;;2.10;99.90;;;;;;5011671;28;20053;-70
2023/12/03 12:04:23;;;;;;;26.75;10.57;;;2.10;99.90;;;;;;5004500;28;20057;-70
2023/12/03 12:06:53;;;;;;;18.45;8.70;;;2.10;99.90;;;;;;5020283;28;20406;-70
2023/12/03 12:09:23;;;;;;;15.68;8.15;;;2.20;99.90;;;;;;5003600;28;20563;-70
2023/12/03 12:11:49;;;;;;;27.27;11.30;;;2.20;99.90;;;;;;5009927;28;20100;-70
2023/12/03 12:14:17;;;;;;;20.10;9.68;;;2.30;99.90;;;;;;5012705;28;20064;-70
2023/12/03 12:16:44;;;;;;;22.77;9.80;;;2.30;99.90;;;;;;4991952;28;20459;-70
2023/12/03 12:19:09;;;;;;;21.90;10.02;;;2.30;99.90;;;;;;5007939;28;20069;-70
2023/12/03 12:21:56;;;;;;;25.00;10.52;;;2.40;99.90;;;;;;4986976;28;20090;-70
2023/12/03 12:24:22;;;;;;;22.20;9.70;;;2.40;99.90;;;;;;5024732;28;20045;-70
2023/12/03 12:26:49;;;;;;;24.90;9.90;;;2.40;99.90;;;;;;5015092;28;20124;-70
2023/12/03 12:29:16;;;;;;;28.40;12.95;;;2.50;99.90;;;;;;4990776;28;20045;-69
2023/12/03 12:31:42;;;;;;;28.40;12.40;;;2.50;99.90;;;;;;5012434;28;20124;-69
2023/12/03 12:34:10;;;;;;;23.25;11.13;;;2.40;99.90;;;;;;5014471;28;20967;-70
2023/12/03 12:36:36;;;;;;;29.77;12.00;;;2.40;99.90;;;;;;5010545;28;20046;-69
2023/12/03 12:39:02;;;;;;;30.75;14.77;;;2.30;99.90;;;;;;5005875;28;20048;-70
2023/12/03 12:41:41;;;;;;;24.85;12.68;;;2.30;99.90;;;;;;4995787;28;20034;-70